Ewell, Maryland
Current Conditions -  °F | °C
As of 3:52 AM on Wednesday 28 Jan 2015 (Local Time) from KTGI Reporting Station
Clear Clear  
Wind Chill: 16°   Ceiling: Unl
Heat Index: 30°   Visibility: 10mi
Dew Point: 19°   Wind: 26mph
Humidity: 64%   Direction: 340°NNW
Pressure: 30.01"   Gusts: 35mph
Location:  37.99°N, 76.03°W
Report Text: KTGI 280852Z AUTO 34023G30KT 10SM CLR M01/M07 A3001 RMK AO1
Loading
Personal Weather Stations






























Interactive Weather Map New forecast layout! Learn more

10-Day Weather Forecast

Advertisements
Track Severe Weather on mobile